La Cygne, Kansas
Current Conditions -  °F | °C
As of 12:53 PM on Friday 21 Nov 2014 (Local Time) from KIXD Reporting Station
Light Rain Light Rain  
Wind Chill: 36°   Ceiling: 1300
Heat Index: 41°   Visibility: 4mi
Dew Point: 32°   Wind: 8mph
Humidity: 70%   Direction: 110°ESE
Pressure: 30.14"   Gusts: NA
Location:  38.35°N, 94.76°W
Report Text: KIXD 211853Z 11007KT 4SM -RA OVC013 05/00 A3014 RMK AO2 RAB38 SLP214 P0000 T00500000
Loading
Personal Weather Stations






























Interactive Weather Map New forecast layout! Learn more

10-Day Weather Forecast

Advertisements
Track Severe Weather on mobile